Carnival Pride — H3VU — position and weather

sailwx.info

Track history (hours):
 
Tides and Currents Weather Stations Pressure Air Temp Water Temp Dewpoint Dewpoint Depression Visibility Wind Speed Wind Dir Waves Ship Positions

Carnival Pride

Operator: Carnival Cruise Lines

Last reported at 2018-Jan-22 08:28 UTC. Time now 2018-Jan-22 08:48 UTC.
Position N 36°51' W 075°51'.

Type: Ship. MMSI: 354215000.

Date/timePositionNaut miles runAvg speedWind from/ knotsBaromVisibWave heightAir tempDewpointWater temp
2018-Jan-22 08:28N 36°51' W 075°51'510.6
2018-Jan-22 08:00N 36°54' W 075°56'510.1
2018-Jan-22 07:30N 36°58' W 075°60'815.2
2018-Jan-22 07:00N 37°04' W 076°06'5217.5
2018-Jan-22 04:00N 37°56' W 076°10'3220.0
2018-Jan-22 02:24N 38°27' W 076°22'819.8
2018-Jan-22 02:00N 38°34' W 076°26'919.2
2018-Jan-22 01:30N 38°44' W 076°26'1019.4
2018-Jan-22 01:01N 38°53' W 076°24'917.6
2018-Jan-22 00:30N 39°02' W 076°23'714.7
2018-Jan-22 00:00N 39°09' W 076°25'612.8
2018-Jan-21 23:30N 39°13' W 076°32'4 8.3
2018-Jan-21 23:00N 39°16' W 076°36'0 0.4
2018-Jan-21 22:30N 39°16' W 076°36'0 0.0
2018-Jan-21 22:00N 39°16' W 076°36'0 0.0
2018-Jan-21 21:30N 39°16' W 076°36'0 0.0
2018-Jan-21 21:00N 39°16' W 076°36'0 0.0
2018-Jan-21 20:30N 39°16' W 076°36'0 0.0
2018-Jan-21 20:00N 39°16' W 076°36'0 0.0
2018-Jan-21 19:30N 39°16' W 076°36'0 0.0
2018-Jan-21 19:00N 39°16' W 076°36'0 0.0
2018-Jan-21 18:30N 39°16' W 076°36'0 0.0
2018-Jan-21 18:00N 39°16' W 076°36'0 0.0
2018-Jan-21 17:30N 39°16' W 076°36'0 0.0
2018-Jan-21 17:00N 39°16' W 076°36'0 0.0
2018-Jan-21 16:30N 39°16' W 076°36'0 0.0
2018-Jan-21 16:00N 39°16' W 076°36'0 0.0
2018-Jan-21 15:30N 39°16' W 076°36'0 0.0
2018-Jan-21 15:00N 39°16' W 076°36'0 0.0
2018-Jan-21 14:30N 39°16' W 076°36'0 0.0
2018-Jan-21 14:00N 39°16' W 076°36'0 0.0
2018-Jan-21 13:30N 39°16' W 076°36'5 5.0
2018-Jan-21 12:31N 39°13' W 076°31'611.3
2018-Jan-21 12:00N 39°09' W 076°25'713.8
2018-Jan-21 11:30N 39°03' W 076°23'714.8
2018-Jan-21 11:00N 38°55' W 076°23'917.0
2018-Jan-21 10:30N 38°47' W 076°25'816.9
2018-Jan-21 10:00N 38°38' W 076°25'816.4
2018-Jan-21 09:30N 38°30' W 076°24'1118.6
2018-Jan-21 08:55N 38°20' W 076°18'818.5
2018-Jan-21 08:29N 38°13' W 076°15'918.1
2018-Jan-21 07:58N 38°04' W 076°13'5718.2
2018-Jan-21 04:50N 37°07' W 076°07'719.9
2018-Jan-21 04:30N 37°01' W 076°03'714.0
2018-Jan-21 04:00N 36°56' W 075°57'510.5
2018-Jan-21 03:30N 36°53' W 075°52'610.6
2018-Jan-21 02:56N 36°50' W 075°45'19015.9
2018-Jan-20 15:00N 33°42' W 075°06'6622.0 250 / 351025.9 5.4 19.0 9.623.0
2018-Jan-20 12:00N 32°36' W 075°06'16818.7 260 / 251023.310.8 18.010.623.0
2018-Jan-20 03:00N 29°48' W 074°54'   290 / 101028.9 5.4 21.010.024.0
2018-Jan-12 14:58N 17°07' W 061°51'0 0.0
2018-Jan-12 14:28N 17°07' W 061°51'0 0.0
2018-Jan-12 13:58N 17°07' W 061°51'0 0.3
2018-Jan-12 13:30N 17°07' W 061°51'4 7.2
2018-Jan-12 13:01N 17°09' W 061°54'510.1
2018-Jan-12 12:30N 17°11' W 061°59'510.7
2018-Jan-12 12:01N 17°14' W 062°03'510.7
2018-Jan-12 11:30N 17°18' W 062°08'510.9
2018-Jan-12 11:00N 17°21' W 062°13'510.9
2018-Jan-12 10:30N 17°24' W 062°17'611.2
2018-Jan-12 10:00N 17°27' W 062°22'510.9
2018-Jan-12 09:31N 17°30' W 062°27'814.7
2018-Jan-12 08:59N 17°34' W 062°34'  
Track history (hours):
 
Tides and Currents Weather Stations Pressure Air Temp Water Temp Dewpoint Dewpoint Depression Visibility Wind Speed Wind Dir Waves Ship Positions

Carnival Pride

Operator: Carnival Cruise Lines

Last reported at 2018-Jan-22 08:28 UTC. Time now 2018-Jan-22 08:48 UTC.
Position N 36°51' W 075°51'.

Type: Ship. MMSI: 354215000.

Date/timePositionNaut miles runAvg speedWind from/ knotsBaromVisibWave heightAir tempDewpointWater temp
2018-Jan-22 08:28N 36°51' W 075°51'510.6
2018-Jan-22 08:00N 36°54' W 075°56'510.1
2018-Jan-22 07:30N 36°58' W 075°60'815.2
2018-Jan-22 07:00N 37°04' W 076°06'5217.5
2018-Jan-22 04:00N 37°56' W 076°10'3220.0
2018-Jan-22 02:24N 38°27' W 076°22'819.8
2018-Jan-22 02:00N 38°34' W 076°26'919.2
2018-Jan-22 01:30N 38°44' W 076°26'1019.4
2018-Jan-22 01:01N 38°53' W 076°24'917.6
2018-Jan-22 00:30N 39°02' W 076°23'714.7
2018-Jan-22 00:00N 39°09' W 076°25'612.8
2018-Jan-21 23:30N 39°13' W 076°32'4 8.3
2018-Jan-21 23:00N 39°16' W 076°36'0 0.4
2018-Jan-21 22:30N 39°16' W 076°36'0 0.0
2018-Jan-21 22:00N 39°16' W 076°36'0 0.0
2018-Jan-21 21:30N 39°16' W 076°36'0 0.0
2018-Jan-21 21:00N 39°16' W 076°36'0 0.0
2018-Jan-21 20:30N 39°16' W 076°36'0 0.0
2018-Jan-21 20:00N 39°16' W 076°36'0 0.0
2018-Jan-21 19:30N 39°16' W 076°36'0 0.0
2018-Jan-21 19:00N 39°16' W 076°36'0 0.0
2018-Jan-21 18:30N 39°16' W 076°36'0 0.0
2018-Jan-21 18:00N 39°16' W 076°36'0 0.0
2018-Jan-21 17:30N 39°16' W 076°36'0 0.0
2018-Jan-21 17:00N 39°16' W 076°36'0 0.0
2018-Jan-21 16:30N 39°16' W 076°36'0 0.0
2018-Jan-21 16:00N 39°16' W 076°36'0 0.0
2018-Jan-21 15:30N 39°16' W 076°36'0 0.0
2018-Jan-21 15:00N 39°16' W 076°36'0 0.0
2018-Jan-21 14:30N 39°16' W 076°36'0 0.0
2018-Jan-21 14:00N 39°16' W 076°36'0 0.0
2018-Jan-21 13:30N 39°16' W 076°36'5 5.0
2018-Jan-21 12:31N 39°13' W 076°31'611.3
2018-Jan-21 12:00N 39°09' W 076°25'713.8
2018-Jan-21 11:30N 39°03' W 076°23'714.8
2018-Jan-21 11:00N 38°55' W 076°23'917.0
2018-Jan-21 10:30N 38°47' W 076°25'816.9
2018-Jan-21 10:00N 38°38' W 076°25'816.4
2018-Jan-21 09:30N 38°30' W 076°24'1118.6
2018-Jan-21 08:55N 38°20' W 076°18'818.5
2018-Jan-21 08:29N 38°13' W 076°15'918.1
2018-Jan-21 07:58N 38°04' W 076°13'5718.2
2018-Jan-21 04:50N 37°07' W 076°07'719.9
2018-Jan-21 04:30N 37°01' W 076°03'714.0
2018-Jan-21 04:00N 36°56' W 075°57'510.5
2018-Jan-21 03:30N 36°53' W 075°52'610.6
2018-Jan-21 02:56N 36°50' W 075°45'19015.9
2018-Jan-20 15:00N 33°42' W 075°06'6622.0 250 / 351025.9 5.4 19.0 9.623.0
2018-Jan-20 12:00N 32°36' W 075°06'16818.7 260 / 251023.310.8 18.010.623.0
2018-Jan-20 03:00N 29°48' W 074°54'   290 / 101028.9 5.4 21.010.024.0
2018-Jan-12 14:58N 17°07' W 061°51'0 0.0
2018-Jan-12 14:28N 17°07' W 061°51'0 0.0
2018-Jan-12 13:58N 17°07' W 061°51'0 0.3
2018-Jan-12 13:30N 17°07' W 061°51'4 7.2
2018-Jan-12 13:01N 17°09' W 061°54'510.1
2018-Jan-12 12:30N 17°11' W 061°59'510.7
2018-Jan-12 12:01N 17°14' W 062°03'510.7
2018-Jan-12 11:30N 17°18' W 062°08'510.9
2018-Jan-12 11:00N 17°21' W 062°13'510.9
2018-Jan-12 10:30N 17°24' W 062°17'611.2
2018-Jan-12 10:00N 17°27' W 062°22'510.9
2018-Jan-12 09:31N 17°30' W 062°27'814.7
2018-Jan-12 08:59N 17°34' W 062°34'  

Dump ship's entire track history